Terminal Aerodrome Forecast
Issued by NWS Wilmington, NC

Home | Current Version | Previous Version | Text Only | Print | Product List | Glossary On
Versions: 1 2 3 4 5 6 7 8 9 10 11 12
189
FTUS42 KILM 260538
TAFILM
TAF
KILM 260538Z 2606/2706 22005KT P6SM SKC
     FM261300 23009KT P6SM FEW030
     FM261900 20010G15KT P6SM SCT040 SCT250
     FM270100 22008KT P6SM SKC=

USA.gov is the U.S. government's official web portal to all federal, state and local government web resources and services.